Kvitbjoern — LM9158 — position and weather

sailwx.info

Track history (hours):
 
Tides and Currents Weather Stations Pressure Air Temp Water Temp Dewpoint Dewpoint Depression Visibility Wind Speed Wind Dir Waves Ship Positions

Kvitbjoern

Last reported at 2017-Mar-11 12:31 UTC. Time now 2017-Mar-27 12:42 UTC.
Position N 66°22' E 012°21'.
Warning: this ship's position is 16 days out of date.

Length 10 m.

Type: Fishing. MMSI: 257454420.

Date/timePositionNaut miles runAvg speedWind from/ knotsBaromVisibWave heightAir tempDewpointWater temp
2017-Mar-11 12:31N 66°22' E 012°21'0 0.0
2017-Mar-11 11:31N 66°22' E 012°21'0 0.0
2017-Mar-10 13:29N 66°22' E 012°21'0 0.0
2017-Mar-10 12:20N 66°22' E 012°21'2 0.7
2017-Mar-10 09:26N 66°22' E 012°26'2 0.2
2017-Mar-09 22:30N 66°22' E 012°21'0 0.0
2017-Mar-09 21:30N 66°22' E 012°21'0 0.0
2017-Mar-09 20:24N 66°22' E 012°21'0 0.0
2017-Mar-09 19:30N 66°22' E 012°21'0 0.0
2017-Mar-09 18:30N 66°22' E 012°21'0 0.0
2017-Mar-09 17:30N 66°22' E 012°21'1 1.4
2017-Mar-09 16:33N 66°21' E 012°24'1 0.1
2017-Mar-09 10:21N 66°22' E 012°26'0 0.1
2017-Mar-09 08:32N 66°22' E 012°27'2 0.8
2017-Mar-09 06:10N 66°21' E 012°24'2 3.1
2017-Mar-09 05:32N 66°22' E 012°21'0 0.0
2017-Mar-08 21:13N 66°22' E 012°21'0 0.0
2017-Mar-08 20:31N 66°22' E 012°21'0 0.0
2017-Mar-08 19:31N 66°22' E 012°21'0 0.0
2017-Mar-08 18:31N 66°22' E 012°21'0 0.0
2017-Mar-08 17:31N 66°22' E 012°21'0 0.0
2017-Mar-08 16:31N 66°22' E 012°21'2 0.4
2017-Mar-08 11:22N 66°21' E 012°24'2 0.9
2017-Mar-08 09:08N 66°22' E 012°27'2 2.8
2017-Mar-08 08:33N 66°21' E 012°25'0 0.1
2017-Mar-08 06:32N 66°21' E 012°24'  
2017-Mar-03 13:26N 66°22' E 012°21'3 2.8
2017-Mar-03 12:26N 66°24' E 012°17'5 5.7
2017-Mar-03 11:33N 66°28' E 012°08'2 2.1
2017-Mar-03 10:33N 66°30' E 012°05'4 4.2
2017-Mar-03 09:33N 66°27' E 012°12'6 5.5
2017-Mar-03 08:31N 66°22' E 012°22'0 0.0
2017-Mar-02 20:15N 66°22' E 012°21'0 0.0
2017-Mar-02 19:33N 66°22' E 012°21'0 0.0
2017-Mar-02 18:33N 66°22' E 012°21'0 0.0
2017-Mar-02 17:33N 66°22' E 012°21'0 0.0
2017-Mar-02 16:33N 66°22' E 012°21'0 0.4
2017-Mar-02 15:33N 66°23' E 012°22'2 1.1
2017-Mar-02 13:31N 66°25' E 012°20'0 0.3
2017-Mar-02 12:30N 66°24' E 012°20'0 0.4
2017-Mar-02 11:30N 66°25' E 012°19'0 0.1
2017-Mar-02 10:17N 66°25' E 012°19'1 0.8
2017-Mar-02 09:19N 66°24' E 012°21'1 0.7
2017-Mar-02 08:33N 66°25' E 012°21'1 0.6
2017-Mar-02 07:30N 66°24' E 012°21'1 1.4
2017-Mar-02 06:33N 66°23' E 012°21'1 0.0
2017-Mar-01 14:12N 66°22' E 012°21'0 0.0
2017-Mar-01 13:33N 66°22' E 012°21'  
Track history (hours):
 
Tides and Currents Weather Stations Pressure Air Temp Water Temp Dewpoint Dewpoint Depression Visibility Wind Speed Wind Dir Waves Ship Positions

Kvitbjoern

Last reported at 2017-Mar-11 12:31 UTC. Time now 2017-Mar-27 12:42 UTC.
Position N 66°22' E 012°21'.
Warning: this ship's position is 16 days out of date.

Length 10 m.

Type: Fishing. MMSI: 257454420.

Date/timePositionNaut miles runAvg speedWind from/ knotsBaromVisibWave heightAir tempDewpointWater temp
2017-Mar-11 12:31N 66°22' E 012°21'0 0.0
2017-Mar-11 11:31N 66°22' E 012°21'0 0.0
2017-Mar-10 13:29N 66°22' E 012°21'0 0.0
2017-Mar-10 12:20N 66°22' E 012°21'2 0.7
2017-Mar-10 09:26N 66°22' E 012°26'2 0.2
2017-Mar-09 22:30N 66°22' E 012°21'0 0.0
2017-Mar-09 21:30N 66°22' E 012°21'0 0.0
2017-Mar-09 20:24N 66°22' E 012°21'0 0.0
2017-Mar-09 19:30N 66°22' E 012°21'0 0.0
2017-Mar-09 18:30N 66°22' E 012°21'0 0.0
2017-Mar-09 17:30N 66°22' E 012°21'1 1.4
2017-Mar-09 16:33N 66°21' E 012°24'1 0.1
2017-Mar-09 10:21N 66°22' E 012°26'0 0.1
2017-Mar-09 08:32N 66°22' E 012°27'2 0.8
2017-Mar-09 06:10N 66°21' E 012°24'2 3.1
2017-Mar-09 05:32N 66°22' E 012°21'0 0.0
2017-Mar-08 21:13N 66°22' E 012°21'0 0.0
2017-Mar-08 20:31N 66°22' E 012°21'0 0.0
2017-Mar-08 19:31N 66°22' E 012°21'0 0.0
2017-Mar-08 18:31N 66°22' E 012°21'0 0.0
2017-Mar-08 17:31N 66°22' E 012°21'0 0.0
2017-Mar-08 16:31N 66°22' E 012°21'2 0.4
2017-Mar-08 11:22N 66°21' E 012°24'2 0.9
2017-Mar-08 09:08N 66°22' E 012°27'2 2.8
2017-Mar-08 08:33N 66°21' E 012°25'0 0.1
2017-Mar-08 06:32N 66°21' E 012°24'  
2017-Mar-03 13:26N 66°22' E 012°21'3 2.8
2017-Mar-03 12:26N 66°24' E 012°17'5 5.7
2017-Mar-03 11:33N 66°28' E 012°08'2 2.1
2017-Mar-03 10:33N 66°30' E 012°05'4 4.2
2017-Mar-03 09:33N 66°27' E 012°12'6 5.5
2017-Mar-03 08:31N 66°22' E 012°22'0 0.0
2017-Mar-02 20:15N 66°22' E 012°21'0 0.0
2017-Mar-02 19:33N 66°22' E 012°21'0 0.0
2017-Mar-02 18:33N 66°22' E 012°21'0 0.0
2017-Mar-02 17:33N 66°22' E 012°21'0 0.0
2017-Mar-02 16:33N 66°22' E 012°21'0 0.4
2017-Mar-02 15:33N 66°23' E 012°22'2 1.1
2017-Mar-02 13:31N 66°25' E 012°20'0 0.3
2017-Mar-02 12:30N 66°24' E 012°20'0 0.4
2017-Mar-02 11:30N 66°25' E 012°19'0 0.1
2017-Mar-02 10:17N 66°25' E 012°19'1 0.8
2017-Mar-02 09:19N 66°24' E 012°21'1 0.7
2017-Mar-02 08:33N 66°25' E 012°21'1 0.6
2017-Mar-02 07:30N 66°24' E 012°21'1 1.4
2017-Mar-02 06:33N 66°23' E 012°21'1 0.0
2017-Mar-01 14:12N 66°22' E 012°21'0 0.0
2017-Mar-01 13:33N 66°22' E 012°21'  

Dump ship's entire track history